createdAt,value
2023-03-05T00:00:10.537Z,70.5
2023-03-05T00:10:16.739Z,70
2023-03-05T00:20:23.159Z,70.5
2023-03-05T00:30:29.248Z,70
2023-03-05T00:40:35.569Z,69.5
2023-03-05T00:50:41.979Z,71.5
2023-03-05T01:00:48.031Z,72
2023-03-05T01:10:54.432Z,69
2023-03-05T01:21:00.678Z,68.5
2023-03-05T01:31:06.873Z,69
2023-03-05T01:41:13.226Z,69
2023-03-05T01:51:19.502Z,68.5
2023-03-05T02:01:25.732Z,69.5
2023-03-05T02:11:32.038Z,69
2023-03-05T02:21:38.249Z,68.5
2023-03-05T02:31:44.560Z,69
2023-03-05T02:41:50.780Z,70
2023-03-05T02:51:57.029Z,70.5
2023-03-05T03:02:03.401Z,71
2023-03-05T03:12:09.678Z,71
2023-03-05T03:22:15.890Z,71.5
2023-03-05T03:32:22.158Z,70
2023-03-05T03:42:28.445Z,70
2023-03-05T03:52:34.655Z,70
2023-03-05T04:02:40.974Z,70
2023-03-05T04:12:47.152Z,68.5
2023-03-05T04:22:53.477Z,68.5
2023-03-05T04:32:59.681Z,66
2023-03-05T04:43:05.957Z,64
2023-03-05T04:53:12.239Z,64.5
2023-03-05T05:03:18.502Z,64.5
2023-03-05T05:13:24.737Z,64
2023-03-05T05:23:31.003Z,64
2023-03-05T05:33:37.205Z,65
2023-03-05T05:43:43.420Z,64.5
2023-03-05T05:53:49.707Z,65
2023-03-05T06:03:55.864Z,65
2023-03-05T06:14:02.050Z,67.5
2023-03-05T06:24:08.290Z,67.5
2023-03-05T06:34:14.469Z,67.5
2023-03-05T06:44:20.686Z,67.5
2023-03-05T06:54:27.013Z,66
2023-03-05T07:04:33.109Z,66.5
2023-03-05T07:14:39.306Z,68
2023-03-05T07:24:45.612Z,69
2023-03-05T07:44:57.929Z,71
2023-03-05T07:55:04.196Z,71.5
2023-03-05T08:05:10.372Z,69
2023-03-05T08:15:16.753Z,69
2023-03-05T08:25:22.804Z,68.5
2023-03-05T08:35:29.001Z,70
2023-03-05T08:45:35.211Z,65
2023-03-05T08:55:41.486Z,65.5
2023-03-05T09:05:47.642Z,63.5
2023-03-05T09:15:53.858Z,65
2023-03-05T09:26:00.066Z,66
2023-03-05T09:36:06.276Z,64
2023-03-05T09:46:12.462Z,63
2023-03-05T09:56:18.782Z,60.5
2023-03-05T10:06:24.894Z,59
2023-03-05T10:16:31.115Z,59
2023-03-05T10:26:37.331Z,58.5
2023-03-05T10:36:43.541Z,61.5
2023-03-05T10:46:49.763Z,63.5
2023-03-05T10:56:55.952Z,63
2023-03-05T11:07:02.245Z,63.5
2023-03-05T11:17:08.391Z,64
2023-03-05T11:27:14.613Z,66.5
2023-03-05T11:37:20.790Z,66.5
2023-03-05T11:47:27.018Z,65.5
2023-03-05T11:57:33.218Z,64
2023-03-05T12:07:39.453Z,62
2023-03-05T12:17:45.735Z,61.5
2023-03-05T12:27:52.069Z,60.5
2023-03-05T12:37:58.184Z,60
2023-03-05T12:48:04.370Z,57
2023-03-05T12:58:10.616Z,55
2023-03-05T13:08:16.843Z,55.5
2023-03-05T13:18:22.983Z,56
2023-03-05T13:28:29.372Z,56.5
2023-03-05T13:38:35.695Z,56
2023-03-05T13:48:41.772Z,54.5
2023-03-05T13:58:48.013Z,55
2023-03-05T14:08:54.330Z,54
2023-03-05T14:19:00.510Z,56
2023-03-05T14:29:06.735Z,54.5
2023-03-05T14:39:12.961Z,57
2023-03-05T14:49:19.117Z,59
2023-03-05T14:59:25.551Z,56.5
2023-03-05T15:09:31.756Z,58.5
2023-03-05T15:19:37.856Z,60.5
2023-03-05T15:29:44.079Z,61
2023-03-05T15:39:50.271Z,61.5
2023-03-05T15:49:56.556Z,62.5
2023-03-05T16:00:02.769Z,63
2023-03-05T16:10:08.928Z,63.5
2023-03-05T16:20:15.370Z,63.5
2023-03-05T16:30:21.508Z,63.5
2023-03-05T16:40:27.836Z,64.5
2023-03-05T16:50:33.011Z,64.5
2023-03-05T17:00:39.297Z,64.5
2023-03-05T17:10:45.574Z,65
2023-03-05T17:20:51.768Z,65
2023-03-05T17:30:57.908Z,65.5
2023-03-05T17:41:04.108Z,66.5
2023-03-05T17:51:10.445Z,66.5
2023-03-05T18:01:16.711Z,67
2023-03-05T18:11:22.967Z,67.5
2023-03-05T18:21:29.263Z,68
2023-03-05T18:31:35.437Z,68
2023-03-05T18:41:41.717Z,69
2023-03-05T18:51:48.007Z,69
2023-03-05T19:01:54.237Z,69.5
2023-03-05T19:12:00.477Z,69.5
2023-03-05T19:22:06.876Z,69.5
2023-03-05T19:32:13.070Z,69.5
2023-03-05T19:42:19.449Z,70
2023-03-05T19:52:25.715Z,69.5
2023-03-05T20:02:31.831Z,70
2023-03-05T20:12:38.052Z,70
2023-03-05T20:22:44.339Z,70.5
2023-03-05T20:32:50.751Z,70.5
2023-03-05T20:42:57.039Z,71
2023-03-05T20:53:03.308Z,71
2023-03-05T21:03:09.532Z,70
2023-03-05T21:13:15.909Z,69
2023-03-05T21:23:22.042Z,71.5
2023-03-05T21:33:28.382Z,71
2023-03-05T21:43:34.583Z,69.5
2023-03-05T21:53:40.884Z,68
2023-03-05T22:03:47.090Z,66
2023-03-05T22:13:53.369Z,70
2023-03-05T22:23:59.617Z,69.5
2023-03-05T22:34:05.915Z,71.5
2023-03-05T22:44:12.175Z,72.5
2023-03-05T22:54:18.551Z,72.5
2023-03-05T23:04:24.671Z,72
2023-03-05T23:14:30.946Z,72
2023-03-05T23:24:37.215Z,72.5
2023-03-05T23:34:43.481Z,73
2023-03-05T23:44:49.725Z,73
2023-03-05T23:54:56.003Z,72.5
